Time;durP1;ratioP1;P1;durP2;ratioP2;P2;SDS_P1;SDS_P2;PMS_P1;PMS_P2;Temp;Humidity;BMP_temperature;BMP_pressure;BME280_temperature;BME280_humidity;BME280_pressure;Samples;Min_cycle;Max_cycle;Signal;HPM_P1;HPM_P2
2023/08/12 00:01:21;;;;;;;6.05;3.17;;;19.10;99.90;;;;;;5036161;28;20045;-70
2023/08/12 00:03:47;;;;;;;4.70;3.10;;;19.00;99.90;;;;;;5027893;28;20049;-70
2023/08/12 00:06:13;;;;;;;6.60;3.20;;;19.00;99.90;;;;;;5028172;28;20465;-70
2023/08/12 00:08:38;;;;;;;8.02;3.53;;;19.00;99.90;;;;;;5038119;28;20043;-70
2023/08/12 00:11:04;;;;;;;7.38;4.38;;;19.00;99.90;;;;;;5027534;28;20029;-70
2023/08/12 00:13:30;;;;;;;6.20;3.78;;;19.00;99.90;;;;;;5046604;28;20136;-67
2023/08/12 00:15:55;;;;;;;8.20;4.10;;;19.00;99.90;;;;;;5043048;28;20119;-71
2023/08/12 00:18:22;;;;;;;5.40;3.70;;;19.00;99.90;;;;;;5033773;28;20451;-71
2023/08/12 00:20:48;;;;;;;13.07;4.25;;;18.90;99.90;;;;;;5039034;28;20040;-70
2023/08/12 00:23:13;;;;;;;7.18;4.20;;;18.90;99.90;;;;;;5032032;28;20365;-70
2023/08/12 00:25:39;;;;;;;6.78;4.15;;;18.80;99.90;;;;;;5040857;28;20422;-70
2023/08/12 00:28:05;;;;;;;6.85;4.10;;;18.80;99.90;;;;;;5040880;28;20216;-70
2023/08/12 00:30:30;;;;;;;8.02;3.80;;;18.80;99.90;;;;;;5031213;28;21986;-70
2023/08/12 00:32:56;;;;;;;8.75;4.32;;;18.70;99.90;;;;;;5031459;28;20042;-70
2023/08/12 00:35:21;;;;;;;8.38;3.85;;;18.70;99.90;;;;;;5031805;28;20042;-68
2023/08/12 00:37:47;;;;;;;7.57;4.50;;;18.70;99.90;;;;;;5045172;28;20495;-70
2023/08/12 00:40:13;;;;;;;7.30;3.70;;;18.70;99.90;;;;;;5048038;28;20052;-69
2023/08/12 00:42:38;;;;;;;6.53;3.67;;;18.70;99.90;;;;;;5038498;28;20076;-70
2023/08/12 00:45:10;;;;;;;6.85;3.78;;;18.70;99.90;;;;;;5036642;28;20401;-70
2023/08/12 00:47:36;;;;;;;7.72;3.33;;;18.60;99.90;;;;;;5030674;28;20457;-70
2023/08/12 00:50:02;;;;;;;7.93;3.92;;;18.60;99.90;;;;;;5032007;28;20068;-67
2023/08/12 00:52:28;;;;;;;5.85;3.72;;;18.60;99.90;;;;;;5035887;28;20064;-71
2023/08/12 00:54:53;;;;;;;6.68;3.58;;;18.60;99.90;;;;;;5037680;28;20357;-70
2023/08/12 00:57:19;;;;;;;7.50;3.40;;;18.60;99.90;;;;;;5037436;28;20041;-71
2023/08/12 00:59:45;;;;;;;5.90;3.47;;;18.60;99.90;;;;;;5038215;28;20418;-70
2023/08/12 01:02:12;;;;;;;6.45;3.35;;;18.60;99.90;;;;;;5041844;28;20621;-70
2023/08/12 01:04:38;;;;;;;4.90;3.38;;;18.60;99.90;;;;;;5027510;28;20477;-70
2023/08/12 01:07:03;;;;;;;6.80;3.10;;;18.60;99.90;;;;;;5027413;28;20103;-70
2023/08/12 01:09:30;;;;;;;9.60;3.75;;;18.60;99.90;;;;;;5045598;28;20028;-70
2023/08/12 01:12:06;;;;;;;6.15;3.63;;;18.60;99.90;;;;;;5042573;28;20380;-71
2023/08/12 01:15:03;;;;;;;9.57;3.60;;;18.60;99.90;;;;;;5042705;28;20037;-71
2023/08/12 01:17:31;;;;;;;7.68;4.13;;;18.50;99.90;;;;;;5034832;28;20501;-71
2023/08/12 01:19:57;;;;;;;10.00;3.75;;;18.50;99.90;;;;;;5028910;28;20088;-69
2023/08/12 01:22:25;;;;;;;7.35;3.47;;;18.60;99.90;;;;;;5030884;28;20626;-70
2023/08/12 01:24:51;;;;;;;8.50;3.80;;;18.50;99.90;;;;;;5029296;28;20479;-70
2023/08/12 01:27:17;;;;;;;4.25;3.03;;;18.50;99.90;;;;;;5033911;28;21006;-69
2023/08/12 01:29:49;;;;;;;7.45;3.67;;;18.50;99.90;;;;;;5033428;28;20045;-70
2023/08/12 01:32:34;;;;;;;6.65;3.67;;;18.50;99.90;;;;;;5046735;28;20120;-70
2023/08/12 01:35:20;;;;;;;10.43;3.95;;;18.50;99.90;;;;;;5029668;28;21223;-70
2023/08/12 01:37:49;;;;;;;5.93;3.60;;;18.50;99.90;;;;;;5032474;28;20470;-70
2023/08/12 01:40:16;;;;;;;6.95;3.65;;;18.50;99.90;;;;;;5037690;28;20151;-70
2023/08/12 01:42:42;;;;;;;7.05;3.78;;;18.40;99.90;;;;;;5034386;28;20414;-70
2023/08/12 01:45:08;;;;;;;8.15;3.65;;;18.30;99.90;;;;;;5054844;28;20175;-70
2023/08/12 01:47:34;;;;;;;7.28;3.53;;;18.30;99.90;;;;;;5041139;28;20037;-68
2023/08/12 01:49:59;;;;;;;5.03;2.85;;;18.30;99.90;;;;;;5032925;28;20092;-70
2023/08/12 01:52:25;;;;;;;7.68;3.38;;;18.20;99.90;;;;;;5039675;28;20132;-70
2023/08/12 01:54:51;;;;;;;7.65;3.90;;;18.10;99.90;;;;;;5029441;28;20453;-70
2023/08/12 01:57:17;;;;;;;8.20;3.75;;;18.00;99.90;;;;;;5044355;28;20049;-69
2023/08/12 01:59:44;;;;;;;5.15;3.33;;;18.00;99.90;;;;;;5031664;28;20134;-70
2023/08/12 02:02:09;;;;;;;7.38;3.65;;;17.90;99.90;;;;;;5035900;28;20319;-70
2023/08/12 02:04:37;;;;;;;7.20;3.20;;;17.90;99.90;;;;;;5031209;28;20142;-70
2023/08/12 02:07:03;;;;;;;7.55;3.75;;;17.80;99.90;;;;;;5031388;28;20045;-70
2023/08/12 02:09:28;;;;;;;5.35;3.40;;;17.80;99.90;;;;;;5042139;28;20064;-70
2023/08/12 02:11:54;;;;;;;7.82;3.80;;;17.80;99.90;;;;;;5042650;28;20116;-70
2023/08/12 02:14:19;;;;;;;6.40;3.40;;;17.70;99.90;;;;;;5041963;28;20701;-70
2023/08/12 02:16:45;;;;;;;6.22;3.67;;;17.70;99.90;;;;;;5034794;28;20338;-68
2023/08/12 02:19:10;;;;;;;5.57;3.10;;;17.70;99.90;;;;;;5047001;28;20037;-70
2023/08/12 02:21:36;;;;;;;8.25;3.60;;;17.70;99.90;;;;;;5044169;28;20048;-70
2023/08/12 02:24:02;;;;;;;8.57;3.80;;;17.80;99.90;;;;;;5029870;28;20063;-69
2023/08/12 02:26:27;;;;;;;6.55;3.83;;;17.80;99.90;;;;;;5031676;28;20517;-70
2023/08/12 02:28:53;;;;;;;6.75;3.75;;;17.80;99.90;;;;;;5045930;28;20100;-70
2023/08/12 02:31:18;;;;;;;9.23;4.20;;;17.90;99.90;;;;;;5042629;28;20043;-70
2023/08/12 02:33:44;;;;;;;8.02;4.47;;;17.90;99.90;;;;;;5034842;28;20091;-70
2023/08/12 02:36:09;;;;;;;6.38;3.55;;;17.90;99.90;;;;;;5027441;28;20052;-70
2023/08/12 02:38:35;;;;;;;7.93;4.65;;;18.00;99.90;;;;;;5042364;28;20045;-70
2023/08/12 02:41:01;;;;;;;10.02;5.20;;;18.00;99.90;;;;;;5036810;28;20489;-70
2023/08/12 02:43:26;;;;;;;11.02;5.65;;;18.10;99.90;;;;;;5032949;28;22149;-70
2023/08/12 02:45:52;;;;;;;11.80;6.07;;;18.10;99.90;;;;;;5036018;28;20416;-70
2023/08/12 02:48:18;;;;;;;15.40;7.28;;;18.10;99.90;;;;;;5049086;28;20415;-70
2023/08/12 02:50:44;;;;;;;14.52;7.72;;;18.20;99.90;;;;;;5042204;28;20107;-71
2023/08/12 02:53:09;;;;;;;12.88;7.35;;;18.20;99.90;;;;;;5038695;28;20046;-68
2023/08/12 02:55:36;;;;;;;10.77;6.85;;;18.30;99.90;;;;;;5027361;28;20045;-69
2023/08/12 02:58:02;;;;;;;12.60;7.22;;;18.30;99.90;;;;;;5031916;28;20045;-71
2023/08/12 03:00:27;;;;;;;13.18;7.20;;;18.30;99.90;;;;;;5036295;28;20456;-70
2023/08/12 03:02:54;;;;;;;14.07;8.07;;;18.30;99.90;;;;;;5025670;28;20034;-70
2023/08/12 03:05:20;;;;;;;14.70;8.10;;;18.30;99.90;;;;;;5037523;28;20543;-70
2023/08/12 03:07:46;;;;;;;17.38;8.85;;;18.30;99.90;;;;;;5042446;28;20092;-71
2023/08/12 03:10:12;;;;;;;15.90;8.70;;;18.40;99.90;;;;;;5040802;28;20033;-68
2023/08/12 03:12:38;;;;;;;17.10;9.25;;;18.40;99.90;;;;;;5044737;28;20484;-70
2023/08/12 03:15:05;;;;;;;20.10;9.52;;;18.40;99.90;;;;;;5030003;28;20136;-72
2023/08/12 03:17:30;;;;;;;18.75;9.57;;;18.40;99.90;;;;;;5039397;28;20424;-70
2023/08/12 03:19:59;;;;;;;16.52;9.77;;;18.50;99.90;;;;;;5039249;28;20041;-70
2023/08/12 03:22:28;;;;;;;17.88;9.52;;;18.50;99.90;;;;;;5041459;28;20056;-70
2023/08/12 03:24:53;;;;;;;19.05;10.43;;;18.50;99.90;;;;;;5038456;28;20087;-69
2023/08/12 03:27:19;;;;;;;21.85;10.43;;;18.50;99.90;;;;;;5036973;28;20448;-70
2023/08/12 03:29:44;;;;;;;20.00;9.95;;;18.50;99.90;;;;;;5049889;28;20049;-68
2023/08/12 03:32:10;;;;;;;20.98;10.40;;;18.50;99.90;;;;;;5039321;28;20107;-70
2023/08/12 03:34:35;;;;;;;19.02;10.80;;;18.50;99.90;;;;;;5032272;28;20306;-70
2023/08/12 03:37:01;;;;;;;19.85;9.50;;;18.50;99.90;;;;;;5031924;28;20040;-69
2023/08/12 03:39:27;;;;;;;18.52;9.57;;;18.50;99.90;;;;;;5043887;28;20040;-70
2023/08/12 03:41:53;;;;;;;17.30;10.55;;;18.50;99.90;;;;;;5047801;28;20049;-70
2023/08/12 03:44:19;;;;;;;16.42;10.45;;;18.40;99.90;;;;;;5037889;28;20056;-70
2023/08/12 03:46:44;;;;;;;20.15;11.18;;;18.40;99.90;;;;;;5028715;28;20041;-70
2023/08/12 03:49:10;;;;;;;20.33;10.85;;;18.40;99.90;;;;;;5060609;28;20041;-70
2023/08/12 03:51:36;;;;;;;18.33;10.43;;;18.40;99.90;;;;;;5043667;28;20060;-70
2023/08/12 03:54:01;;;;;;;17.95;10.25;;;18.40;99.90;;;;;;5043146;28;20058;-70
2023/08/12 03:56:27;;;;;;;18.02;9.88;;;18.40;99.90;;;;;;5039625;28;20037;-70
2023/08/12 03:58:52;;;;;;;21.65;10.45;;;18.50;99.90;;;;;;5025343;28;20045;-70
2023/08/12 04:01:18;;;;;;;21.70;10.60;;;18.40;99.90;;;;;;5037602;28;20124;-70
2023/08/12 04:03:43;;;;;;;23.73;11.30;;;18.50;99.90;;;;;;5037906;28;20476;-70
2023/08/12 04:06:09;;;;;;;16.58;9.73;;;18.50;99.90;;;;;;5026596;28;20045;-70
2023/08/12 04:08:34;;;;;;;16.98;10.15;;;18.50;99.90;;;;;;5029329;28;20764;-69
2023/08/12 04:11:00;;;;;;;18.13;9.60;;;18.50;99.90;;;;;;5035581;28;20029;-70
2023/08/12 04:13:26;;;;;;;16.73;10.15;;;18.50;99.90;;;;;;5027255;28;20208;-70
2023/08/12 04:15:53;;;;;;;19.02;9.95;;;18.50;99.90;;;;;;5025977;28;20044;-70
2023/08/12 04:18:18;;;;;;;19.83;9.85;;;18.50;99.90;;;;;;5026806;28;20048;-69
2023/08/12 04:20:46;;;;;;;19.48;9.93;;;18.50;99.90;;;;;;5031342;28;20044;-70
2023/08/12 04:23:12;;;;;;;19.90;11.40;;;18.60;99.90;;;;;;5044578;28;20506;-69
2023/08/12 04:25:38;;;;;;;18.63;10.38;;;18.50;99.90;;;;;;5026700;28;20120;-71
2023/08/12 04:28:04;;;;;;;19.50;10.52;;;18.60;99.90;;;;;;5039320;28;20047;-70
2023/08/12 04:30:29;;;;;;;22.25;11.32;;;18.60;99.90;;;;;;5043167;28;20099;-68
2023/08/12 04:32:55;;;;;;;18.73;10.93;;;18.70;99.90;;;;;;5035402;28;20115;-70
2023/08/12 04:35:21;;;;;;;23.23;12.10;;;18.70;99.90;;;;;;5027765;28;20561;-69
2023/08/12 04:37:46;;;;;;;19.08;10.48;;;18.70;99.90;;;;;;5036319;28;20424;-70
2023/08/12 04:40:12;;;;;;;19.05;10.35;;;18.70;99.90;;;;;;5043496;28;20091;-74
2023/08/12 04:42:37;;;;;;;24.77;11.40;;;18.80;99.90;;;;;;5023453;28;20469;-70
2023/08/12 04:45:03;;;;;;;18.50;11.60;;;18.80;99.90;;;;;;5037167;28;20106;-70
2023/08/12 04:47:29;;;;;;;19.80;11.77;;;18.80;99.90;;;;;;5031468;28;20076;-69
2023/08/12 04:49:55;;;;;;;19.85;11.68;;;18.80;99.90;;;;;;5048750;28;20110;-69
2023/08/12 04:52:20;;;;;;;17.40;10.98;;;18.80;99.90;;;;;;5050929;28;20096;-70
2023/08/12 04:54:46;;;;;;;21.15;11.45;;;18.90;99.90;;;;;;5027984;28;20482;-69
2023/08/12 04:57:12;;;;;;;23.20;12.30;;;18.90;99.90;;;;;;5030430;28;20044;-71
2023/08/12 04:59:37;;;;;;;22.25;11.65;;;18.90;99.90;;;;;;5046403;28;20362;-70
2023/08/12 05:02:03;;;;;;;20.80;11.95;;;18.90;99.90;;;;;;5047846;28;20073;-70
2023/08/12 05:04:29;;;;;;;24.65;11.75;;;18.90;99.90;;;;;;5035603;28;20133;-70
2023/08/12 05:06:54;;;;;;;21.23;11.75;;;18.90;99.90;;;;;;5043002;28;20457;-70
2023/08/12 05:09:20;;;;;;;18.60;11.40;;;18.90;99.90;;;;;;5048533;28;20047;-70
2023/08/12 05:11:45;;;;;;;21.20;12.23;;;19.00;99.90;;;;;;5042262;28;20041;-69
2023/08/12 05:14:11;;;;;;;24.05;12.38;;;19.00;99.90;;;;;;5032629;28;20025;-70
2023/08/12 05:16:36;;;;;;;20.42;12.20;;;19.00;99.90;;;;;;5043047;28;20029;-70
2023/08/12 05:19:02;;;;;;;24.45;13.02;;;19.00;99.90;;;;;;5040100;28;20033;-70
2023/08/12 05:21:28;;;;;;;22.95;12.65;;;19.00;99.90;;;;;;5032815;28;20120;-70
2023/08/12 05:23:53;;;;;;;21.50;13.15;;;19.00;99.90;;;;;;5048905;28;20060;-71
2023/08/12 05:26:20;;;;;;;24.25;12.52;;;19.10;99.90;;;;;;5049925;28;20700;-70
2023/08/12 05:28:46;;;;;;;23.10;12.52;;;19.00;99.90;;;;;;5064774;28;20434;-70
2023/08/12 05:31:12;;;;;;;23.48;12.45;;;19.10;99.90;;;;;;5046365;28;20219;-70
2023/08/12 05:33:37;;;;;;;22.25;12.85;;;19.10;99.90;;;;;;5047144;28;20105;-71
2023/08/12 05:36:03;;;;;;;27.33;13.43;;;19.10;99.90;;;;;;5020964;28;20029;-70
2023/08/12 05:38:29;;;;;;;22.95;13.00;;;19.20;99.90;;;;;;5032661;28;20034;-70
2023/08/12 05:40:55;;;;;;;24.42;13.75;;;19.20;99.90;;;;;;5044835;28;20121;-71
2023/08/12 05:43:20;;;;;;;22.13;13.25;;;19.30;99.90;;;;;;5052603;28;20099;-70
2023/08/12 05:45:47;;;;;;;23.48;12.35;;;19.30;99.90;;;;;;5039594;28;20053;-71
2023/08/12 05:48:13;;;;;;;23.13;13.18;;;19.40;99.90;;;;;;5056609;28;20068;-70
2023/08/12 05:50:38;;;;;;;24.20;14.75;;;19.40;99.90;;;;;;5037828;28;20080;-69
2023/08/12 05:53:04;;;;;;;21.50;13.35;;;19.50;99.90;;;;;;5047133;28;20107;-72
2023/08/12 05:55:30;;;;;;;25.77;14.48;;;19.60;99.90;;;;;;5038393;28;20037;-70
2023/08/12 05:57:55;;;;;;;27.13;14.60;;;19.60;99.90;;;;;;5047459;28;20045;-70
2023/08/12 06:00:21;;;;;;;24.55;14.63;;;19.70;99.90;;;;;;5044378;28;20037;-69
2023/08/12 06:02:46;;;;;;;26.58;15.10;;;19.80;99.90;;;;;;5029453;28;20053;-70
2023/08/12 06:05:12;;;;;;;25.83;15.15;;;19.80;99.90;;;;;;5045508;28;20135;-70
2023/08/12 06:07:38;;;;;;;26.48;14.82;;;19.90;99.90;;;;;;5052012;28;20056;-70
2023/08/12 06:10:04;;;;;;;23.20;15.00;;;19.90;99.90;;;;;;5041519;28;20357;-72
2023/08/12 06:12:30;;;;;;;22.27;14.63;;;20.00;99.90;;;;;;5042559;28;20033;-70
2023/08/12 06:14:55;;;;;;;24.98;14.00;;;20.10;99.90;;;;;;5027436;28;20045;-70
2023/08/12 06:17:21;;;;;;;24.05;14.30;;;20.20;99.90;;;;;;5039309;28;20716;-71
2023/08/12 06:19:46;;;;;;;27.67;14.77;;;20.40;99.90;;;;;;5043190;28;20041;-71
2023/08/12 06:22:12;;;;;;;21.95;13.57;;;20.50;99.90;;;;;;5047484;28;20033;-71
2023/08/12 06:24:37;;;;;;;23.58;14.38;;;20.60;99.90;;;;;;5037282;28;20583;-69
2023/08/12 06:27:03;;;;;;;20.73;13.68;;;20.70;99.90;;;;;;5040312;28;20025;-70
2023/08/12 06:29:29;;;;;;;21.20;13.10;;;20.60;99.90;;;;;;5043502;28;20036;-68
2023/08/12 06:31:54;;;;;;;23.80;13.27;;;20.60;99.90;;;;;;5041733;28;20068;-71
2023/08/12 06:34:20;;;;;;;25.30;13.70;;;20.60;99.90;;;;;;5028995;28;20051;-71
2023/08/12 06:36:46;;;;;;;24.55;14.15;;;20.60;99.90;;;;;;5023608;28;20087;-70
2023/08/12 06:39:11;;;;;;;23.13;13.43;;;20.50;99.90;;;;;;5042700;28;20115;-72
2023/08/12 06:41:37;;;;;;;22.30;12.60;;;20.40;99.90;;;;;;5005136;28;20029;-70
2023/08/12 06:44:04;;;;;;;25.08;13.00;;;20.50;99.90;;;;;;5045797;28;20089;-71
2023/08/12 06:46:30;;;;;;;19.70;11.82;;;20.50;99.90;;;;;;5039354;28;20044;-71
2023/08/12 06:48:58;;;;;;;20.25;12.25;;;20.50;99.90;;;;;;5044313;28;20473;-70
2023/08/12 06:51:23;;;;;;;20.25;12.10;;;20.50;99.90;;;;;;5031774;28;20034;-71
2023/08/12 06:53:49;;;;;;;19.63;12.65;;;20.50;99.90;;;;;;5042795;28;20052;-71
2023/08/12 06:56:15;;;;;;;19.73;11.35;;;20.40;99.90;;;;;;5033183;28;20041;-70
2023/08/12 06:58:40;;;;;;;22.95;12.63;;;20.50;99.90;;;;;;5029163;28;20041;-71
2023/08/12 07:01:06;;;;;;;18.40;11.23;;;20.30;99.90;;;;;;5023925;28;20041;-72
2023/08/12 07:03:32;;;;;;;19.80;13.18;;;20.20;99.90;;;;;;5037617;28;20048;-70
2023/08/12 07:05:58;;;;;;;21.42;12.38;;;20.10;99.90;;;;;;5032924;28;20133;-71
2023/08/12 07:08:23;;;;;;;20.38;12.52;;;20.00;99.90;;;;;;5029886;28;20486;-72
2023/08/12 07:10:49;;;;;;;21.95;13.40;;;20.00;99.90;;;;;;5040743;28;20047;-72
2023/08/12 07:13:15;;;;;;;25.02;14.18;;;20.00;99.90;;;;;;5051790;28;20417;-71
2023/08/12 07:15:40;;;;;;;28.48;16.40;;;20.00;99.90;;;;;;5055902;28;20047;-69
2023/08/12 07:18:06;;;;;;;28.33;15.70;;;20.00;99.90;;;;;;5031659;28;20037;-73
2023/08/12 07:20:32;;;;;;;31.75;17.38;;;19.90;99.90;;;;;;5042951;28;20434;-71
2023/08/12 07:22:57;;;;;;;32.92;18.42;;;19.90;99.90;;;;;;5035522;28;20527;-71
2023/08/12 07:25:23;;;;;;;32.28;18.30;;;19.90;99.90;;;;;;5028763;28;20034;-71
2023/08/12 07:27:48;;;;;;;31.10;17.95;;;20.00;99.90;;;;;;5034628;28;20065;-71
2023/08/12 07:30:14;;;;;;;34.03;19.23;;;20.00;99.90;;;;;;5036215;28;20048;-71
2023/08/12 07:32:39;;;;;;;32.53;18.58;;;20.00;99.90;;;;;;5038247;28;20029;-68
2023/08/12 07:35:05;;;;;;;33.42;18.83;;;20.00;99.90;;;;;;5043938;28;20041;-71
2023/08/12 07:37:31;;;;;;;29.80;18.30;;;20.00;99.90;;;;;;5036585;28;20116;-71
2023/08/12 07:39:57;;;;;;;33.88;19.63;;;19.90;99.90;;;;;;5031770;28;20099;-70
2023/08/12 07:42:22;;;;;;;34.17;18.95;;;20.00;99.90;;;;;;5048677;28;20044;-71
2023/08/12 07:44:48;;;;;;;36.92;19.80;;;20.00;99.90;;;;;;5037832;28;20056;-69
2023/08/12 07:47:15;;;;;;;31.13;18.58;;;20.00;99.90;;;;;;5045592;28;20204;-70
2023/08/12 07:49:41;;;;;;;33.67;19.80;;;20.00;99.90;;;;;;5043616;28;20041;-69
2023/08/12 07:52:06;;;;;;;37.35;19.70;;;20.00;99.90;;;;;;5043242;28;20524;-70
2023/08/12 07:54:32;;;;;;;34.83;19.75;;;20.00;99.90;;;;;;5041331;28;20045;-70
2023/08/12 07:56:58;;;;;;;34.38;19.88;;;20.00;99.90;;;;;;5044487;28;20049;-70
2023/08/12 07:59:23;;;;;;;32.75;19.38;;;20.00;99.90;;;;;;5045347;28;20037;-69
2023/08/12 08:01:49;;;;;;;37.95;20.42;;;20.00;99.90;;;;;;5047527;28;20448;-71
2023/08/12 08:04:14;;;;;;;38.92;20.77;;;19.90;99.90;;;;;;5048457;28;20522;-72
2023/08/12 08:06:40;;;;;;;40.33;22.70;;;19.90;99.90;;;;;;5049437;28;20395;-69
2023/08/12 08:09:06;;;;;;;40.75;21.50;;;19.80;99.90;;;;;;5035381;28;20060;-71
2023/08/12 08:11:32;;;;;;;39.65;22.38;;;19.80;99.90;;;;;;5031344;28;20104;-71
2023/08/12 08:14:00;;;;;;;42.17;22.73;;;19.80;99.90;;;;;;5035709;28;20429;-71
2023/08/12 08:16:26;;;;;;;40.67;22.50;;;19.80;99.90;;;;;;5045671;28;20475;-71
2023/08/12 08:18:52;;;;;;;35.72;21.00;;;19.80;99.90;;;;;;5049108;28;20045;-70
2023/08/12 08:21:17;;;;;;;36.72;19.65;;;19.80;99.90;;;;;;5057665;28;20063;-70
2023/08/12 08:23:43;;;;;;;39.65;20.50;;;19.70;99.90;;;;;;5048430;28;20045;-69
2023/08/12 08:26:09;;;;;;;34.13;19.95;;;19.70;99.90;;;;;;5047091;28;20204;-69
2023/08/12 08:28:35;;;;;;;37.95;21.00;;;19.70;99.90;;;;;;5043849;28;20044;-70
2023/08/12 08:31:01;;;;;;;40.90;21.73;;;19.60;99.90;;;;;;5049533;28;20037;-71
2023/08/12 08:33:26;;;;;;;42.17;22.25;;;19.70;99.90;;;;;;5042553;28;20073;-71
2023/08/12 08:35:53;;;;;;;45.65;23.50;;;19.60;99.90;;;;;;5049309;28;20075;-70
2023/08/12 08:38:19;;;;;;;43.55;23.40;;;19.60;99.90;;;;;;5054122;28;20631;-71
2023/08/12 08:40:45;;;;;;;43.08;22.00;;;19.60;99.90;;;;;;5051986;28;20137;-73
2023/08/12 08:43:15;;;;;;;42.38;23.65;;;19.50;99.90;;;;;;5058236;28;20044;-72
2023/08/12 08:45:43;;;;;;;40.53;23.20;;;19.50;99.90;;;;;;5069537;28;20092;-71
2023/08/12 08:48:11;;;;;;;38.20;20.77;;;19.50;99.90;;;;;;5050605;28;20033;-72
2023/08/12 08:50:37;;;;;;;38.75;21.10;;;19.50;99.90;;;;;;5042692;28;20057;-71
2023/08/12 08:53:06;;;;;;;41.92;20.75;;;19.40;99.90;;;;;;5035724;28;20474;-71
2023/08/12 08:55:32;;;;;;;40.38;21.52;;;19.50;99.90;;;;;;5041697;28;20149;-72
2023/08/12 08:57:57;;;;;;;46.42;22.27;;;19.40;99.90;;;;;;5042363;28;20045;-70
2023/08/12 09:00:25;;;;;;;42.13;20.38;;;19.50;99.90;;;;;;5049212;28;20048;-70
2023/08/12 09:02:51;;;;;;;41.58;21.73;;;19.50;99.90;;;;;;5053032;28;20041;-69
2023/08/12 09:05:17;;;;;;;43.08;21.88;;;19.50;99.90;;;;;;5038787;28;20048;-68
2023/08/12 09:07:44;;;;;;;43.55;21.83;;;18.90;99.90;;;;;;5048456;28;20137;-68
2023/08/12 09:10:10;;;;;;;38.80;20.80;;;19.20;99.90;;;;;;5043106;28;20186;-69
2023/08/12 09:12:36;;;;;;;42.30;18.98;;;19.60;99.90;;;;;;5030109;28;20619;-71
2023/08/12 09:15:04;;;;;;;37.47;20.15;;;19.80;99.90;;;;;;5057505;28;20066;-73
2023/08/12 09:17:30;;;;;;;40.80;18.67;;;18.80;99.90;;;;;;5042852;28;20136;-70
2023/08/12 09:19:55;;;;;;;30.13;17.83;;;19.50;99.90;;;;;;5025293;28;20757;-69
2023/08/12 09:22:24;;;;;;;31.17;15.90;;;19.40;99.90;;;;;;5047798;28;20052;-70
2023/08/12 09:24:50;;;;;;;24.08;13.32;;;19.60;99.90;;;;;;5038800;28;20338;-69
2023/08/12 09:27:18;;;;;;;30.27;12.13;;;18.80;99.90;;;;;;5056912;28;20132;-68
2023/08/12 09:29:43;;;;;;;19.63;9.65;;;19.00;99.90;;;;;;5045430;28;20134;-69
2023/08/12 09:32:10;;;;;;;15.48;9.80;;;19.00;99.90;;;;;;5047595;28;20057;-69
2023/08/12 09:34:36;;;;;;;14.25;8.32;;;19.30;99.90;;;;;;5036310;28;20526;-69
2023/08/12 09:37:03;;;;;;;18.17;8.15;;;18.40;99.90;;;;;;5046844;28;20126;-68
2023/08/12 09:39:31;;;;;;;17.20;7.85;;;18.90;99.90;;;;;;5060755;28;20048;-69
2023/08/12 09:41:57;;;;;;;13.93;7.45;;;19.00;99.90;;;;;;5041364;28;20115;-67
2023/08/12 09:44:23;;;;;;;16.50;8.20;;;18.70;99.90;;;;;;5039572;28;20132;-69
2023/08/12 09:46:55;;;;;;;14.38;7.57;;;18.30;99.90;;;;;;5050650;28;20120;-69
2023/08/12 09:49:21;;;;;;;18.60;7.72;;;18.60;99.90;;;;;;5049034;28;20123;-70
2023/08/12 09:51:46;;;;;;;39.65;14.35;;;18.30;99.90;;;;;;5050594;28;20132;-71
2023/08/12 09:54:12;;;;;;;18.20;9.52;;;18.80;99.90;;;;;;5048025;28;20068;-72
2023/08/12 09:56:40;;;;;;;19.52;8.98;;;19.50;99.90;;;;;;5044713;28;20083;-72
2023/08/12 09:59:09;;;;;;;17.13;8.70;;;18.80;99.90;;;;;;5042436;28;20168;-74
2023/08/12 10:01:36;;;;;;;21.00;8.95;;;19.30;99.90;;;;;;5031373;28;20087;-73
2023/08/12 10:04:05;;;;;;;17.55;9.13;;;18.60;99.90;;;;;;5043879;28;20056;-73
2023/08/12 10:06:31;;;;;;;23.97;10.17;;;19.60;99.90;;;;;;5048259;28;20361;-73
2023/08/12 10:08:57;;;;;;;26.50;10.82;;;19.40;99.90;;;;;;5030997;28;20323;-74
2023/08/12 10:11:24;;;;;;;27.27;10.70;;;19.40;99.90;;;;;;5049227;28;20048;-75
2023/08/12 10:13:50;;;;;;;22.35;10.32;;;18.70;99.90;;;;;;5047872;28;20041;-74
2023/08/12 10:16:16;;;;;;;15.70;9.80;;;18.60;99.90;;;;;;5047004;28;20591;-73
2023/08/12 10:18:43;;;;;;;21.95;10.70;;;19.20;99.90;;;;;;5031549;28;20041;-75
2023/08/12 10:21:13;;;;;;;14.73;9.00;;;18.70;99.90;;;;;;5039683;28;20049;-76
2023/08/12 10:23:40;;;;;;;;;;;19.10;99.90;;;;;;5040386;28;20120;-77
2023/08/12 10:26:07;;;;;;;17.63;9.80;;;19.70;99.90;;;;;;5043197;28;20321;-77
2023/08/12 10:28:36;;;;;;;17.67;10.38;;;18.60;99.90;;;;;;5045184;28;20049;-77
2023/08/12 10:31:03;;;;;;;19.88;9.40;;;19.40;99.90;;;;;;5066327;28;20044;-76
2023/08/12 10:33:29;;;;;;;12.57;8.70;;;18.70;99.90;;;;;;5048729;28;20068;-79
2023/08/12 10:35:55;;;;;;;14.88;8.75;;;19.40;99.90;;;;;;5050581;28;20075;-74
2023/08/12 10:38:21;;;;;;;21.60;9.05;;;19.80;99.90;;;;;;5061841;28;20047;-77
2023/08/12 10:40:47;;;;;;;13.15;8.43;;;18.70;99.90;;;;;;5051211;28;20405;-80
2023/08/12 10:43:14;;;;;;;12.32;7.13;;;19.30;99.90;;;;;;5046324;28;20033;-77
2023/08/12 10:46:08;;;;;;;8.93;6.03;;;19.20;99.90;;;;;;5047582;28;20044;-78
2023/08/12 10:48:34;;;;;;;10.70;5.47;;;19.50;99.90;;;;;;5055465;28;20095;-80
2023/08/12 10:51:00;;;;;;;12.05;6.40;;;19.40;99.90;;;;;;5048214;28;20057;-78
2023/08/12 10:53:33;;;;;;;11.82;6.78;;;19.90;99.90;;;;;;5048493;28;20087;-80
2023/08/12 10:56:04;;;;;;;9.98;5.90;;;19.80;99.90;;;;;;5017333;28;20124;-77
2023/08/12 10:58:54;;;;;;;9.27;5.80;;;19.40;99.90;;;;;;5051702;28;20137;-75
2023/08/12 11:01:19;;;;;;;11.95;6.18;;;18.90;99.90;;;;;;5044432;28;20070;-80
2023/08/12 11:03:49;;;;;;;9.63;6.03;;;20.20;99.90;;;;;;5051908;28;20045;-77
2023/08/12 11:06:14;;;;;;;21.63;13.45;;;19.50;99.90;;;;;;5054917;28;20036;-77
2023/08/12 11:09:06;;;;;;;7.53;5.25;;;20.30;99.90;;;;;;5029206;28;20575;-77
2023/08/12 11:11:33;;;;;;;10.32;7.28;;;19.00;99.90;;;;;;5040307;28;20107;-76
2023/08/12 11:13:59;;;;;;;9.77;6.57;;;20.10;99.90;;;;;;5028880;28;20033;-76
2023/08/12 11:16:35;;;;;;;10.40;6.90;;;19.40;99.90;;;;;;5053989;28;20327;-76
2023/08/12 11:19:00;;;;;;;8.10;5.60;;;20.30;99.90;;;;;;5035257;28;20128;-78
2023/08/12 11:21:26;;;;;;;7.03;4.88;;;19.00;99.90;;;;;;5028806;28;20140;-80
2023/08/12 11:23:54;;;;;;;7.35;4.78;;;19.30;99.90;;;;;;5042498;28;20484;-80
2023/08/12 11:26:24;;;;;;;8.50;5.22;;;19.00;99.90;;;;;;5043316;28;20456;-78
2023/08/12 11:28:49;;;;;;;7.20;4.60;;;19.20;99.90;;;;;;5045659;28;20380;-78
2023/08/12 11:31:16;;;;;;;7.68;4.55;;;20.00;99.90;;;;;;5049980;28;20037;-79
2023/08/12 11:33:42;;;;;;;8.00;5.00;;;19.00;99.90;;;;;;5053934;28;20107;-79
2023/08/12 11:36:07;;;;;;;7.10;4.88;;;18.90;99.90;;;;;;5032734;28;20127;-77
2023/08/12 11:38:33;;;;;;;6.00;4.07;;;19.50;99.90;;;;;;5039557;28;20121;-78
2023/08/12 11:41:02;;;;;;;8.30;4.15;;;18.80;99.90;;;;;;5032220;28;20049;-76
2023/08/12 11:43:29;;;;;;;5.68;3.58;;;19.80;99.90;;;;;;5038724;28;20056;-76
2023/08/12 11:45:56;;;;;;;5.38;3.40;;;18.90;99.90;;;;;;5033527;28;20060;-77
2023/08/12 11:48:23;;;;;;;3.00;2.40;;;19.20;99.90;;;;;;5043691;28;20409;-75
2023/08/12 11:50:48;;;;;;;2.75;1.98;;;18.90;99.90;;;;;;5044061;28;20136;-74
2023/08/12 11:53:14;;;;;;;4.00;2.13;;;19.60;99.90;;;;;;5039326;28;20025;-72
2023/08/12 11:55:40;;;;;;;1.70;1.60;;;19.00;99.90;;;;;;5040505;28;20480;-76
2023/08/12 11:58:05;;;;;;;2.97;1.80;;;19.20;99.90;;;;;;5034635;28;20038;-75
2023/08/12 12:00:32;;;;;;;3.50;1.80;;;19.60;99.90;;;;;;5049483;28;20049;-75
2023/08/12 12:02:58;;;;;;;2.10;1.70;;;18.90;99.90;;;;;;5029584;28;20052;-75
2023/08/12 12:05:27;;;;;;;6.60;1.73;;;20.00;99.90;;;;;;5047125;28;20029;-76
2023/08/12 12:07:53;;;;;;;2.38;1.58;;;19.10;99.90;;;;;;5037800;28;20036;-78
2023/08/12 12:10:29;;;;;;;1.73;1.60;;;19.60;99.90;;;;;;5051240;28;20092;-76
2023/08/12 12:12:56;;;;;;;1.98;1.58;;;19.20;99.90;;;;;;5028669;28;20040;-74
2023/08/12 12:15:21;;;;;;;2.33;1.40;;;20.50;99.90;;;;;;4999146;28;20041;-75
2023/08/12 12:17:49;;;;;;;2.47;1.60;;;20.10;99.90;;;;;;5002982;28;20047;-73
2023/08/12 12:20:14;;;;;;;40.88;4.05;;;19.50;99.90;;;;;;5024615;28;20036;-73
2023/08/12 12:22:43;;;;;;;5.15;2.13;;;20.70;99.90;;;;;;5034899;28;20091;-76
2023/08/12 12:25:11;;;;;;;2.95;2.17;;;21.10;99.90;;;;;;5028050;28;20103;-75
2023/08/12 12:27:42;;;;;;;2.00;1.80;;;20.10;99.90;;;;;;5035955;28;20064;-76
2023/08/12 12:30:09;;;;;;;2.42;1.90;;;19.90;99.90;;;;;;5044453;28;20083;-74
2023/08/12 12:32:35;;;;;;;3.15;2.00;;;20.90;99.90;;;;;;5045467;28;20037;-73